Time;durP1;ratioP1;P1;durP2;ratioP2;P2;SDS_P1;SDS_P2;PMS_P1;PMS_P2;Temp;Humidity;BMP_temperature;BMP_pressure;BME280_temperature;BME280_humidity;BME280_pressure;Samples;Min_cycle;Max_cycle;Signal;HPM_P1;HPM_P2
2022/01/30 00:00:47;;;;;;;122.38;96.97;;;27.50;99.90;;;;;;5019883;28;20057;-71
2022/01/30 00:03:18;;;;;;;116.03;95.85;;;27.50;99.90;;;;;;5030100;28;20029;-72
2022/01/30 00:05:44;;;;;;;123.68;97.70;;;27.50;99.90;;;;;;5023656;28;20082;-73
2022/01/30 00:08:11;;;;;;;108.78;89.32;;;27.50;99.90;;;;;;5022989;28;20536;-75
2022/01/30 00:10:40;;;;;;;114.60;87.95;;;27.40;99.90;;;;;;5030852;28;20025;-74
2022/01/30 00:13:12;;;;;;;113.57;88.28;;;27.40;99.90;;;;;;5018352;28;20029;-73
2022/01/30 00:15:43;;;;;;;124.85;94.88;;;27.40;99.90;;;;;;5027530;28;20025;-74
2022/01/30 00:21:04;;;;;;;111.90;87.80;;;27.50;99.90;;;;;;5018696;28;20507;-73
2022/01/30 00:23:33;;;;;;;106.80;87.35;;;27.50;99.90;;;;;;5027747;28;20076;-72
2022/01/30 00:26:03;;;;;;;91.85;73.55;;;27.50;99.90;;;;;;5025468;28;20474;-73
2022/01/30 00:28:32;;;;;;;90.28;72.38;;;27.50;99.90;;;;;;5019780;28;20033;-71
2022/01/30 00:30:59;;;;;;;97.95;66.25;;;27.50;99.90;;;;;;5031331;28;20076;-73
2022/01/30 00:33:26;;;;;;;85.25;59.75;;;27.50;99.90;;;;;;5018719;28;20104;-71
2022/01/30 00:35:53;;;;;;;73.38;50.95;;;27.50;99.90;;;;;;5024016;28;20029;-71
2022/01/30 00:38:22;;;;;;;91.28;63.30;;;27.50;99.90;;;;;;5021217;28;20108;-71
2022/01/30 00:40:50;;;;;;;75.07;47.60;;;27.60;99.90;;;;;;5031065;28;20529;-72
2022/01/30 00:43:18;;;;;;;65.07;44.30;;;27.60;99.90;;;;;;5019493;28;20462;-71
2022/01/30 00:45:46;;;;;;;57.13;38.67;;;27.60;99.90;;;;;;5016647;28;20041;-72
2022/01/30 00:48:13;;;;;;;51.42;34.25;;;27.50;99.90;;;;;;5014648;28;20030;-72
2022/01/30 00:50:40;;;;;;;54.28;34.25;;;27.50;99.90;;;;;;5014631;28;20052;-71
2022/01/30 00:53:07;;;;;;;51.33;33.88;;;27.60;99.90;;;;;;5011450;28;20057;-71
2022/01/30 00:55:35;;;;;;;51.13;32.22;;;27.60;99.90;;;;;;5013109;28;20022;-71
2022/01/30 00:58:02;;;;;;;46.72;30.77;;;27.70;99.90;;;;;;5012799;28;20052;-74
2022/01/30 01:00:30;;;;;;;59.15;45.35;;;27.70;99.90;;;;;;5014028;28;20053;-72
2022/01/30 01:02:57;;;;;;;60.58;39.53;;;27.70;99.90;;;;;;5014032;28;20471;-73
2022/01/30 01:05:24;;;;;;;49.28;31.50;;;27.70;99.90;;;;;;5013965;28;20036;-72
2022/01/30 01:07:53;;;;;;;43.28;28.77;;;27.80;99.90;;;;;;5014503;28;20062;-71
2022/01/30 01:23:38;;;;;;;49.50;33.72;;;28.00;99.90;;;;;;5014064;28;20029;-71
2022/01/30 01:26:06;;;;;;;47.80;33.03;;;27.90;99.90;;;;;;5014083;28;20029;-72
2022/01/30 01:28:32;;;;;;;50.25;38.30;;;28.00;99.90;;;;;;5014029;28;20057;-70
2022/01/30 01:31:00;;;;;;;102.93;71.20;;;28.10;99.90;;;;;;5013602;28;20057;-71
2022/01/30 01:33:36;;;;;;;48.22;34.55;;;28.10;99.90;;;;;;5013822;28;20026;-70
2022/01/30 01:36:03;;;;;;;57.65;36.65;;;28.20;99.90;;;;;;5013317;28;20126;-72
2022/01/30 01:38:30;;;;;;;52.97;37.63;;;28.20;99.90;;;;;;5009970;28;20139;-72
2022/01/30 01:40:57;;;;;;;65.90;44.03;;;28.30;99.90;;;;;;4994995;28;20121;-71
2022/01/30 01:43:25;;;;;;;66.65;47.72;;;28.40;99.90;;;;;;4994314;28;20031;-70
2022/01/30 01:45:54;;;;;;;78.07;51.22;;;28.40;99.90;;;;;;5026308;28;20064;-72
2022/01/30 01:48:21;;;;;;;73.72;51.97;;;28.40;99.90;;;;;;5032669;28;20021;-70
2022/01/30 01:50:55;;;;;;;83.70;57.75;;;28.50;99.90;;;;;;5028958;28;20839;-72
2022/01/30 01:53:24;;;;;;;74.65;54.90;;;28.50;99.90;;;;;;5011646;28;20034;-71
2022/01/30 01:55:52;;;;;;;74.70;52.33;;;28.50;99.90;;;;;;5009643;28;20399;-70
2022/01/30 01:58:19;;;;;;;77.63;54.80;;;28.60;99.90;;;;;;5011110;28;20030;-71
2022/01/30 02:00:46;;;;;;;81.80;58.03;;;28.60;99.90;;;;;;5012538;28;20034;-72
2022/01/30 02:03:14;;;;;;;87.03;55.42;;;28.60;99.90;;;;;;5012413;28;20099;-73
2022/01/30 02:05:50;;;;;;;77.72;54.50;;;28.70;99.90;;;;;;5012716;28;20095;-71
2022/01/30 02:11:02;;;;;;;54.60;37.60;;;28.80;99.90;;;;;;5013456;28;20010;-72
2022/01/30 02:24:08;;;;;;;48.75;38.20;;;29.20;99.90;;;;;;5006150;28;20042;-72
2022/01/30 02:26:43;;;;;;;39.03;26.93;;;29.30;99.90;;;;;;5007290;28;20460;-72
2022/01/30 02:29:12;;;;;;;32.38;22.13;;;29.50;99.90;;;;;;5007707;28;20459;-71
2022/01/30 02:31:41;;;;;;;30.20;19.42;;;29.70;99.90;;;;;;5007025;28;20042;-71
2022/01/30 02:34:08;;;;;;;28.33;20.67;;;29.70;99.90;;;;;;5012625;28;20030;-72
2022/01/30 02:36:52;;;;;;;31.60;21.83;;;29.90;99.90;;;;;;5012278;28;20077;-71
2022/01/30 02:39:20;;;;;;;28.92;17.92;;;29.90;99.90;;;;;;5011883;28;20036;-70
2022/01/30 02:41:47;;;;;;;24.92;17.20;;;30.00;99.90;;;;;;5010287;28;20022;-71
2022/01/30 02:44:23;;;;;;;24.10;15.18;;;30.00;99.90;;;;;;5012200;28;20496;-72
2022/01/30 02:46:53;;;;;;;25.73;17.33;;;30.00;99.90;;;;;;5010449;28;20029;-72
2022/01/30 02:51:53;;;;;;;31.30;18.25;;;29.90;99.90;;;;;;5012716;28;20422;-71
2022/01/30 02:54:21;;;;;;;29.80;19.00;;;29.90;99.90;;;;;;5012431;28;20025;-73
2022/01/30 02:56:48;;;;;;;23.38;16.60;;;30.00;99.90;;;;;;5012585;28;20064;-72
2022/01/30 02:59:16;;;;;;;28.85;16.83;;;30.10;99.90;;;;;;5012831;28;20030;-70
2022/01/30 03:01:43;;;;;;;34.08;22.92;;;30.20;99.90;;;;;;5010192;28;20026;-72
2022/01/30 03:04:09;;;;;;;29.20;20.88;;;30.30;99.90;;;;;;5011112;28;20548;-73
2022/01/30 03:06:37;;;;;;;30.88;21.27;;;30.20;99.90;;;;;;5012099;28;20017;-74
2022/01/30 03:09:05;;;;;;;38.28;25.77;;;30.30;99.90;;;;;;5010663;28;20032;-73
2022/01/30 03:11:33;;;;;;;67.50;50.92;;;30.30;99.90;;;;;;5010002;28;20433;-75
2022/01/30 03:13:59;;;;;;;34.70;21.45;;;30.50;99.90;;;;;;5011268;28;20026;-73
2022/01/30 03:16:26;;;;;;;34.97;23.77;;;30.70;99.90;;;;;;5014271;28;20026;-73
2022/01/30 03:18:54;;;;;;;26.30;20.40;;;30.80;99.90;;;;;;5010941;28;20045;-73
2022/01/30 03:21:20;;;;;;;28.95;21.55;;;30.80;99.90;;;;;;5014723;28;20030;-73
2022/01/30 03:23:48;;;;;;;27.90;20.05;;;30.80;99.90;;;;;;5011005;28;20018;-75
2022/01/30 03:26:16;;;;;;;29.52;21.45;;;30.80;99.90;;;;;;5009341;28;20133;-75
2022/01/30 03:28:45;;;;;;;28.83;20.08;;;30.90;99.90;;;;;;5008892;28;20483;-76
2022/01/30 03:31:13;;;;;;;27.70;20.17;;;31.00;99.90;;;;;;5014059;28;20105;-76
2022/01/30 03:33:40;;;;;;;28.20;19.35;;;31.00;99.90;;;;;;5011950;28;20030;-75
2022/01/30 03:36:07;;;;;;;29.40;19.67;;;31.20;99.90;;;;;;5012187;28;20018;-76
2022/01/30 03:38:34;;;;;;;37.22;20.75;;;31.20;99.70;;;;;;5011992;28;20030;-76
2022/01/30 03:41:00;;;;;;;25.33;18.65;;;31.40;99.50;;;;;;5012006;28;20138;-74
2022/01/30 03:43:27;;;;;;;27.20;19.60;;;31.40;97.90;;;;;;5007631;28;20132;-75
2022/01/30 03:45:54;;;;;;;28.25;19.05;;;31.50;99.00;;;;;;5005347;28;20474;-74
2022/01/30 03:48:20;;;;;;;25.45;19.08;;;31.50;97.70;;;;;;5008925;28;20036;-76
2022/01/30 03:50:47;;;;;;;25.88;18.60;;;31.50;97.30;;;;;;5008032;28;20030;-76
2022/01/30 03:53:14;;;;;;;28.45;18.33;;;31.50;98.50;;;;;;5009155;28;20456;-75
2022/01/30 03:55:41;;;;;;;29.52;18.65;;;31.70;97.90;;;;;;5014577;28;20040;-76
2022/01/30 03:58:08;;;;;;;28.75;18.90;;;31.80;97.80;;;;;;5013450;28;20069;-75
2022/01/30 04:00:35;;;;;;;24.88;18.88;;;31.70;97.60;;;;;;5009694;28;20033;-73
2022/01/30 04:03:02;;;;;;;29.73;19.92;;;31.60;96.60;;;;;;5012560;28;20051;-74
2022/01/30 04:05:29;;;;;;;26.83;18.30;;;31.50;96.40;;;;;;5014266;28;20109;-76
2022/01/30 04:08:00;;;;;;;20.02;16.75;;;31.70;96.10;;;;;;5014622;28;20046;-76
2022/01/30 04:10:27;;;;;;;25.95;17.27;;;31.80;96.10;;;;;;5009738;28;20416;-77
2022/01/30 04:12:54;;;;;;;25.02;16.75;;;32.00;95.60;;;;;;5008280;28;20038;-76
2022/01/30 04:15:21;;;;;;;27.95;19.83;;;31.90;95.10;;;;;;5008720;28;20056;-77
2022/01/30 04:17:48;;;;;;;21.42;16.75;;;31.90;94.70;;;;;;5006905;28;20034;-77
2022/01/30 04:20:15;;;;;;;31.50;20.08;;;31.80;94.80;;;;;;5006194;28;20450;-75
2022/01/30 04:22:42;;;;;;;21.15;17.77;;;31.80;94.80;;;;;;5010182;28;20068;-75
2022/01/30 04:25:09;;;;;;;30.73;16.10;;;32.00;94.50;;;;;;5007552;28;20026;-75
2022/01/30 04:27:36;;;;;;;25.60;18.02;;;32.10;94.20;;;;;;5006618;28;20402;-75
2022/01/30 04:30:05;;;;;;;27.20;16.90;;;32.20;93.10;;;;;;5006646;28;20025;-75
2022/01/30 04:32:33;;;;;;;20.92;15.05;;;32.20;92.90;;;;;;5005881;28;20371;-72
2022/01/30 04:35:10;;;;;;;26.73;17.23;;;32.10;92.80;;;;;;5009521;28;20070;-72
2022/01/30 04:37:56;;;;;;;24.48;19.27;;;32.00;92.90;;;;;;5004773;28;20053;-74
2022/01/30 04:59:07;;;;;;;19.30;15.10;;;32.70;87.40;;;;;;5002492;28;20049;-74
2022/01/30 05:01:55;;;;;;;21.10;17.05;;;32.80;89.80;;;;;;5008457;28;20117;-74
2022/01/30 05:04:29;;;;;;;30.30;18.05;;;32.90;90.40;;;;;;5003761;28;20035;-74
2022/01/30 05:07:27;;;;;;;28.67;18.40;;;32.90;90.80;;;;;;5009268;28;20467;-75
2022/01/30 05:09:42;;;;;;;32.35;19.02;;;33.00;89.60;;;;;;5007104;28;20033;-78
2022/01/30 05:12:11;;;;;;;27.45;19.45;;;33.20;87.20;;;;;;5011108;28;20438;-76
2022/01/30 05:14:38;;;;;;;29.55;19.25;;;33.10;88.20;;;;;;4999890;28;20093;-76
2022/01/30 05:17:06;;;;;;;24.05;18.90;;;33.10;87.90;;;;;;5002585;28;20160;-76
2022/01/30 05:19:33;;;;;;;23.17;17.45;;;33.00;88.00;;;;;;5001832;28;20117;-76
2022/01/30 05:22:00;;;;;;;27.08;17.17;;;33.00;84.30;;;;;;5006304;28;20390;-73
2022/01/30 05:24:27;;;;;;;24.33;16.58;;;32.90;84.90;;;;;;5009621;28;20033;-74
2022/01/30 05:26:54;;;;;;;27.13;17.45;;;32.90;86.80;;;;;;5009319;28;20056;-75
2022/01/30 05:29:21;;;;;;;28.63;19.77;;;32.90;87.30;;;;;;5002287;28;20056;-76
2022/01/30 05:31:48;;;;;;;25.92;18.63;;;32.90;87.70;;;;;;4998972;28;20100;-77
2022/01/30 05:34:15;;;;;;;27.27;19.05;;;32.90;87.70;;;;;;4998745;28;20066;-80
2022/01/30 05:36:43;;;;;;;26.95;18.80;;;32.90;87.80;;;;;;4998843;28;20034;-76
2022/01/30 05:39:10;;;;;;;29.83;19.05;;;32.90;86.40;;;;;;4999068;28;20435;-76
2022/01/30 05:41:37;;;;;;;31.58;17.25;;;32.90;87.00;;;;;;5008780;28;20022;-74
2022/01/30 05:44:11;;;;;;;24.33;17.10;;;32.90;86.40;;;;;;5010013;28;20065;-76
2022/01/30 05:46:46;;;;;;;27.30;17.33;;;33.00;86.80;;;;;;5007793;28;20415;-75
2022/01/30 05:49:14;;;;;;;21.63;15.95;;;33.20;83.80;;;;;;5005285;28;20081;-76
2022/01/30 05:51:41;;;;;;;24.42;17.23;;;33.20;83.40;;;;;;5002456;28;20022;-74
2022/01/30 05:54:08;;;;;;;28.60;16.25;;;33.30;84.70;;;;;;5007696;28;20395;-77
2022/01/30 05:56:37;;;;;;;27.30;18.52;;;33.40;85.40;;;;;;5003245;28;20537;-70
2022/01/30 05:59:04;;;;;;;25.13;17.75;;;33.50;84.20;;;;;;5005219;28;20041;-70
2022/01/30 06:01:31;;;;;;;29.38;18.48;;;33.50;80.80;;;;;;4998664;28;20495;-71
2022/01/30 06:03:58;;;;;;;27.95;18.17;;;33.50;83.00;;;;;;4993230;28;20117;-70
2022/01/30 06:06:25;;;;;;;26.38;17.15;;;33.50;85.40;;;;;;5004153;28;20033;-69
2022/01/30 06:09:11;;;;;;;22.92;17.23;;;33.60;84.00;;;;;;5013352;28;20370;-69
2022/01/30 06:11:38;;;;;;;28.35;18.38;;;33.50;84.20;;;;;;5011921;28;20479;-71
2022/01/30 06:14:04;;;;;;;31.33;21.88;;;33.40;83.30;;;;;;5011884;28;20065;-70
2022/01/30 06:16:31;;;;;;;41.60;25.88;;;33.40;81.90;;;;;;5012609;28;20095;-71
2022/01/30 06:18:58;;;;;;;37.42;26.70;;;33.50;83.10;;;;;;5012253;28;20042;-71
2022/01/30 06:21:24;;;;;;;31.20;20.35;;;33.60;82.30;;;;;;5012107;28;20548;-70
2022/01/30 06:23:51;;;;;;;22.98;17.33;;;33.60;79.20;;;;;;5012275;28;20033;-71
2022/01/30 06:26:18;;;;;;;27.38;20.08;;;33.60;79.90;;;;;;5012615;28;20064;-75
2022/01/30 06:28:44;;;;;;;27.30;19.23;;;33.60;81.70;;;;;;5012018;28;20502;-77
2022/01/30 06:31:12;;;;;;;26.70;18.55;;;33.70;81.90;;;;;;5012583;28;20029;-76
2022/01/30 06:33:38;;;;;;;27.45;18.23;;;33.70;80.10;;;;;;5009344;28;20075;-74
2022/01/30 06:36:05;;;;;;;20.73;18.05;;;33.60;81.50;;;;;;5013731;28;20541;-74
2022/01/30 06:38:32;;;;;;;28.23;22.52;;;33.50;80.50;;;;;;5014787;28;20022;-76
2022/01/30 06:40:58;;;;;;;47.03;33.97;;;33.50;80.80;;;;;;5016783;28;20141;-75
2022/01/30 06:43:25;;;;;;;36.47;27.60;;;33.60;80.80;;;;;;5016236;28;21045;-76
2022/01/30 06:45:52;;;;;;;43.03;28.58;;;33.60;80.70;;;;;;5012922;28;20489;-77
2022/01/30 06:48:21;;;;;;;30.13;20.63;;;33.80;80.30;;;;;;5014862;28;20049;-77
2022/01/30 06:50:48;;;;;;;60.13;38.28;;;33.80;80.30;;;;;;5015144;28;20413;-75
2022/01/30 06:53:15;;;;;;;45.58;31.55;;;33.90;79.00;;;;;;5015927;28;20014;-74
2022/01/30 06:55:45;;;;;;;44.15;31.42;;;33.90;78.80;;;;;;5015812;28;20038;-74
2022/01/30 06:58:13;;;;;;;30.80;20.63;;;33.90;78.80;;;;;;5015383;28;20475;-75
2022/01/30 07:00:40;;;;;;;32.55;20.13;;;34.00;77.90;;;;;;5016955;28;20088;-79
2022/01/30 07:03:07;;;;;;;32.75;22.60;;;34.00;79.10;;;;;;5016475;28;20024;-73
2022/01/30 07:05:34;;;;;;;37.63;22.70;;;34.10;78.20;;;;;;5015417;28;20486;-77
2022/01/30 07:08:00;;;;;;;33.83;24.33;;;34.10;77.70;;;;;;5016826;28;20053;-74
2022/01/30 07:10:27;;;;;;;23.75;18.60;;;34.00;78.60;;;;;;5016114;28;20029;-77
2022/01/30 07:12:54;;;;;;;61.70;39.83;;;34.00;76.10;;;;;;5016581;28;20478;-77
2022/01/30 07:15:20;;;;;;;70.82;44.97;;;34.00;77.40;;;;;;5016476;28;20394;-78
2022/01/30 07:17:47;;;;;;;30.08;21.83;;;34.00;77.10;;;;;;5015928;28;20049;-77
2022/01/30 07:20:14;;;;;;;25.25;18.67;;;34.00;76.50;;;;;;5016313;28;20041;-78
2022/01/30 07:22:41;;;;;;;24.48;19.75;;;34.00;76.10;;;;;;5015182;28;20113;-76
2022/01/30 07:25:08;;;;;;;26.42;20.38;;;34.00;77.00;;;;;;5016473;28;20041;-77
2022/01/30 07:27:38;;;;;;;24.77;19.77;;;34.10;77.70;;;;;;5016590;28;20014;-75
2022/01/30 07:30:06;;;;;;;108.38;88.15;;;34.10;77.10;;;;;;5016536;28;20026;-77
2022/01/30 07:32:33;;;;;;;58.15;46.00;;;34.10;77.60;;;;;;5014931;28;20075;-77
2022/01/30 07:35:00;;;;;;;26.63;18.35;;;34.10;76.90;;;;;;5016212;28;20026;-76
2022/01/30 07:37:28;;;;;;;50.90;40.72;;;34.10;77.20;;;;;;5016150;28;20053;-77
2022/01/30 07:39:59;;;;;;;52.35;32.83;;;34.20;76.60;;;;;;5015885;28;20030;-78
2022/01/30 07:42:27;;;;;;;55.70;39.23;;;34.20;77.70;;;;;;5015065;28;20033;-79
2022/01/30 07:44:54;;;;;;;35.95;29.00;;;34.20;77.30;;;;;;5016025;28;20026;-77
2022/01/30 07:47:23;;;;;;;28.92;21.50;;;34.20;77.30;;;;;;5014881;28;20109;-76
2022/01/30 07:49:51;;;;;;;44.97;32.85;;;34.10;76.10;;;;;;5015958;28;20092;-78
2022/01/30 07:52:20;;;;;;;28.52;20.95;;;34.10;77.90;;;;;;5015862;28;20030;-76
2022/01/30 07:54:48;;;;;;;68.18;42.20;;;34.00;77.20;;;;;;5015876;28;20057;-76
2022/01/30 07:57:15;;;;;;;26.73;20.27;;;34.10;76.50;;;;;;5015792;28;20037;-74
2022/01/30 07:59:42;;;;;;;26.08;18.65;;;34.10;74.90;;;;;;5016070;28;20030;-77
2022/01/30 08:02:09;;;;;;;28.45;19.85;;;34.10;73.60;;;;;;5015941;28;20041;-78
2022/01/30 08:04:36;;;;;;;28.67;21.13;;;34.10;75.60;;;;;;5015580;28;20025;-80
2022/01/30 08:07:03;;;;;;;50.45;37.55;;;34.10;76.10;;;;;;5015604;28;20109;-79
2022/01/30 08:09:30;;;;;;;81.53;62.30;;;34.20;76.50;;;;;;5015340;28;20108;-78
2022/01/30 08:11:57;;;;;;;56.55;42.88;;;34.20;75.80;;;;;;5015637;28;20018;-76
2022/01/30 08:14:24;;;;;;;51.28;39.97;;;34.20;74.70;;;;;;5015045;28;20049;-77
2022/01/30 08:16:51;;;;;;;33.35;22.60;;;34.30;74.80;;;;;;5015155;28;20022;-79
2022/01/30 08:19:21;;;;;;;45.53;26.80;;;34.40;74.80;;;;;;5004818;28;20574;-77
2022/01/30 08:21:47;;;;;;;32.90;20.95;;;34.40;76.30;;;;;;5006263;28;20026;-73
2022/01/30 08:24:15;;;;;;;23.00;17.40;;;34.40;75.70;;;;;;4995475;28;20034;-78
2022/01/30 08:26:41;;;;;;;208.13;63.47;;;34.40;73.80;;;;;;4995589;28;20023;-76
2022/01/30 08:29:08;;;;;;;24.02;18.13;;;34.40;75.40;;;;;;4995500;28;20029;-76
2022/01/30 08:31:35;;;;;;;24.52;17.35;;;34.50;74.80;;;;;;4995628;28;20053;-76
2022/01/30 08:34:02;;;;;;;101.53;73.47;;;34.40;73.60;;;;;;4994360;28;20480;-74
2022/01/30 08:36:28;;;;;;;49.45;33.85;;;34.40;75.40;;;;;;4995799;28;20045;-77
2022/01/30 08:38:55;;;;;;;28.48;21.00;;;34.30;74.80;;;;;;4995584;28;20038;-76
2022/01/30 08:41:22;;;;;;;25.13;18.45;;;34.40;75.20;;;;;;4995583;28;20100;-77
2022/01/30 08:43:48;;;;;;;21.48;18.10;;;34.40;73.60;;;;;;4995267;28;20030;-76
2022/01/30 08:46:15;;;;;;;23.38;18.13;;;34.30;74.80;;;;;;4995153;28;20080;-77
2022/01/30 08:48:42;;;;;;;30.65;19.50;;;34.40;74.40;;;;;;4995122;28;20113;-78
2022/01/30 08:51:09;;;;;;;27.92;17.85;;;34.40;74.20;;;;;;4995123;28;20027;-75
2022/01/30 08:53:36;;;;;;;27.05;17.45;;;34.30;73.90;;;;;;4994885;28;20035;-76
2022/01/30 08:56:02;;;;;;;32.50;20.13;;;34.40;75.00;;;;;;4995372;28;20034;-75
2022/01/30 08:58:30;;;;;;;24.48;19.45;;;34.30;75.50;;;;;;4993799;28;20030;-76
2022/01/30 09:00:57;;;;;;;31.17;22.02;;;34.30;73.40;;;;;;4994994;28;20102;-74
2022/01/30 09:03:23;;;;;;;23.15;18.30;;;34.20;74.10;;;;;;4995095;28;20089;-75
2022/01/30 09:05:50;;;;;;;119.75;83.43;;;34.20;74.40;;;;;;4994933;28;20089;-73
2022/01/30 09:08:17;;;;;;;41.42;24.92;;;34.20;74.60;;;;;;5014272;28;20545;-72
2022/01/30 09:10:43;;;;;;;79.65;52.08;;;34.10;77.50;;;;;;5014435;28;20087;-75
2022/01/30 09:13:10;;;;;;;71.43;47.50;;;34.10;79.20;;;;;;5014499;28;20018;-73
2022/01/30 09:15:40;;;;;;;123.85;93.72;;;33.90;80.20;;;;;;5014102;28;20117;-74
2022/01/30 09:18:09;;;;;;;87.78;65.32;;;33.80;81.50;;;;;;5014056;28;20046;-75
2022/01/30 09:20:39;;;;;;;99.75;74.45;;;33.80;81.90;;;;;;5014279;28;20411;-76
2022/01/30 09:23:06;;;;;;;48.92;34.58;;;33.90;82.40;;;;;;5014029;28;20097;-74
2022/01/30 09:25:33;;;;;;;43.28;29.70;;;33.90;82.20;;;;;;5014289;28;20026;-74
2022/01/30 09:28:00;;;;;;;43.83;30.73;;;33.80;82.60;;;;;;5014233;28;20014;-74
2022/01/30 09:30:27;;;;;;;41.53;29.80;;;33.80;83.30;;;;;;5014003;28;20480;-73
2022/01/30 09:32:54;;;;;;;43.88;30.40;;;33.80;83.60;;;;;;5013670;28;20372;-73
2022/01/30 09:35:20;;;;;;;44.08;28.27;;;33.80;83.20;;;;;;5014202;28;20387;-71
2022/01/30 09:37:47;;;;;;;133.85;110.80;;;33.70;84.30;;;;;;5013747;28;20026;-73
2022/01/30 09:40:14;;;;;;;70.05;28.38;;;33.60;84.30;;;;;;5013938;28;20026;-73
2022/01/30 09:42:46;;;;;;;50.20;24.52;;;33.60;83.90;;;;;;5013932;28;20507;-74
2022/01/30 09:45:15;;;;;;;62.45;35.08;;;33.60;84.30;;;;;;5013665;28;20034;-76
2022/01/30 09:47:43;;;;;;;241.68;144.55;;;33.50;84.70;;;;;;5013897;28;20033;-75
2022/01/30 09:50:11;;;;;;;97.38;61.78;;;33.50;85.70;;;;;;5013847;28;20053;-74
2022/01/30 09:52:38;;;;;;;57.42;36.80;;;33.40;85.70;;;;;;5013611;28;20033;-74
2022/01/30 09:55:08;;;;;;;58.72;40.95;;;33.40;87.00;;;;;;5013685;28;20104;-75
2022/01/30 09:57:35;;;;;;;47.88;31.20;;;33.40;87.10;;;;;;5013771;28;20049;-75
2022/01/30 10:00:04;;;;;;;67.43;43.67;;;33.30;87.70;;;;;;5013595;28;20056;-75
2022/01/30 10:02:31;;;;;;;41.83;28.13;;;33.30;87.50;;;;;;5013590;28;20084;-75
2022/01/30 10:04:58;;;;;;;75.38;46.03;;;33.30;86.90;;;;;;5013670;28;20030;-75
2022/01/30 10:07:39;;;;;;;54.63;33.58;;;33.20;87.20;;;;;;5013412;28;20018;-74
2022/01/30 10:10:12;;;;;;;46.63;29.40;;;33.20;87.80;;;;;;5012777;28;20029;-74
2022/01/30 10:13:07;;;;;;;44.92;30.38;;;33.20;87.70;;;;;;5013921;28;20205;-74
2022/01/30 10:15:48;;;;;;;39.60;24.48;;;33.20;87.90;;;;;;5013572;28;20534;-74
2022/01/30 10:18:15;;;;;;;45.78;30.58;;;33.00;87.40;;;;;;5013437;28;20072;-75
2022/01/30 10:20:42;;;;;;;91.40;57.00;;;32.90;87.30;;;;;;5013651;28;20026;-75
2022/01/30 10:23:09;;;;;;;107.05;60.10;;;32.80;85.70;;;;;;5013613;28;20030;-75
2022/01/30 10:25:47;;;;;;;70.85;45.13;;;32.80;84.90;;;;;;5013624;28;20029;-74
2022/01/30 10:28:28;;;;;;;102.38;55.38;;;32.70;85.20;;;;;;5013574;28;20022;-73
2022/01/30 10:31:00;;;;;;;42.63;25.92;;;32.70;84.50;;;;;;5013659;28;20036;-74
2022/01/30 10:33:49;;;;;;;40.53;23.58;;;32.60;84.00;;;;;;5013601;28;20026;-76
2022/01/30 10:36:21;;;;;;;80.75;45.95;;;32.50;84.80;;;;;;5013504;28;20018;-74
2022/01/30 10:39:04;;;;;;;173.75;117.90;;;32.40;85.10;;;;;;5013174;28;20438;-77
2022/01/30 10:41:41;;;;;;;98.63;61.67;;;32.40;86.40;;;;;;5013162;28;20033;-75
2022/01/30 10:44:10;;;;;;;60.45;36.72;;;32.30;87.10;;;;;;5013359;28;20041;-74
2022/01/30 10:46:40;;;;;;;41.55;27.42;;;32.20;87.80;;;;;;5013359;28;20053;-76
2022/01/30 10:49:11;;;;;;;88.38;66.10;;;32.30;88.20;;;;;;5013375;28;20030;-74
2022/01/30 10:51:38;;;;;;;40.00;22.83;;;32.30;88.30;;;;;;5013226;28;20022;-75
2022/01/30 10:54:12;;;;;;;45.28;26.38;;;32.30;88.00;;;;;;5013032;28;20030;-72
2022/01/30 10:56:40;;;;;;;58.88;38.70;;;32.30;88.90;;;;;;5012818;28;20528;-74
2022/01/30 10:59:13;;;;;;;56.70;36.42;;;32.40;89.10;;;;;;5013346;28;20041;-74
2022/01/30 11:01:45;;;;;;;62.92;36.33;;;32.40;89.40;;;;;;5012943;28;20041;-75
2022/01/30 11:04:25;;;;;;;69.68;41.95;;;32.30;89.70;;;;;;5012734;28;20049;-72
2022/01/30 11:06:54;;;;;;;63.38;39.20;;;32.20;90.00;;;;;;5012723;28;20030;-71
2022/01/30 11:09:28;;;;;;;53.13;33.75;;;32.30;89.70;;;;;;5011967;28;20461;-73
2022/01/30 11:12:01;;;;;;;56.90;34.33;;;32.20;90.30;;;;;;5012656;28;20026;-71
2022/01/30 11:14:38;;;;;;;49.45;28.27;;;32.20;90.50;;;;;;5012503;28;20026;-70
2022/01/30 11:17:08;;;;;;;84.80;43.92;;;32.00;90.90;;;;;;5011950;28;20033;-72
2022/01/30 11:19:41;;;;;;;66.68;38.72;;;32.00;91.00;;;;;;5013134;28;20552;-73
2022/01/30 11:22:11;;;;;;;81.95;41.10;;;31.90;91.60;;;;;;5015447;28;20041;-75
2022/01/30 11:24:47;;;;;;;87.78;40.75;;;31.80;91.90;;;;;;5015991;28;20461;-73
2022/01/30 11:27:16;;;;;;;66.35;35.97;;;31.60;92.30;;;;;;4997932;28;20034;-72
2022/01/30 11:29:43;;;;;;;47.58;27.95;;;31.60;92.50;;;;;;5015820;28;20057;-73
2022/01/30 11:32:11;;;;;;;48.30;29.20;;;31.60;92.70;;;;;;5015763;28;20018;-76
2022/01/30 11:34:41;;;;;;;44.65;28.38;;;31.60;92.90;;;;;;5015455;28;20378;-70
2022/01/30 11:37:09;;;;;;;47.83;29.92;;;31.60;92.60;;;;;;5012498;28;20052;-72
2022/01/30 11:39:41;;;;;;;46.20;26.73;;;31.50;92.80;;;;;;5008060;28;20029;-72
2022/01/30 11:42:13;;;;;;;38.97;22.80;;;31.40;93.30;;;;;;5016254;28;20033;-71
2022/01/30 11:44:41;;;;;;;52.45;29.38;;;31.40;93.10;;;;;;5016073;28;20386;-71
2022/01/30 11:47:08;;;;;;;47.75;26.58;;;31.40;92.80;;;;;;5016361;28;20113;-72
2022/01/30 11:49:44;;;;;;;40.83;22.10;;;31.30;93.20;;;;;;5016050;28;20022;-73
2022/01/30 11:52:12;;;;;;;80.05;49.33;;;31.30;93.30;;;;;;5016282;28;20014;-71
2022/01/30 11:54:39;;;;;;;42.08;26.50;;;31.20;93.40;;;;;;5012991;28;20030;-74
2022/01/30 11:57:25;;;;;;;39.40;21.40;;;31.10;93.70;;;;;;5011453;28;20033;-74
2022/01/30 11:59:57;;;;;;;37.63;21.85;;;31.00;93.70;;;;;;5006394;28;20117;-72
2022/01/30 12:02:36;;;;;;;32.75;19.40;;;31.00;93.90;;;;;;5011992;28;20400;-72
2022/01/30 12:05:04;;;;;;;32.65;20.23;;;30.90;94.10;;;;;;5015467;28;20018;-74
2022/01/30 12:07:33;;;;;;;49.15;22.67;;;30.80;94.40;;;;;;5015607;28;20053;-74
2022/01/30 12:10:21;;;;;;;33.78;18.95;;;30.90;94.50;;;;;;5000708;28;20041;-73
2022/01/30 12:12:51;;;;;;;35.28;19.80;;;30.80;94.50;;;;;;5005270;28;20022;-70
2022/01/30 12:15:38;;;;;;;40.35;23.75;;;30.80;94.70;;;;;;5005729;28;20018;-67
2022/01/30 12:18:17;;;;;;;37.78;23.00;;;30.70;94.70;;;;;;5000864;28;20113;-69
2022/01/30 12:21:08;;;;;;;156.75;87.82;;;30.60;95.00;;;;;;5007683;28;20065;-69
2022/01/30 12:23:38;;;;;;;103.00;63.40;;;30.50;95.10;;;;;;5008306;28;20033;-69
2022/01/30 12:26:15;;;;;;;184.05;124.45;;;30.50;95.50;;;;;;5010098;28;20026;-69
2022/01/30 12:28:46;;;;;;;134.65;94.15;;;30.40;95.70;;;;;;5013883;28;20057;-69
2022/01/30 12:31:25;;;;;;;53.88;26.63;;;30.30;96.40;;;;;;5009151;28;20034;-69
2022/01/30 12:34:11;;;;;;;29.92;16.55;;;30.30;96.40;;;;;;5007401;28;20034;-69
2022/01/30 12:36:53;;;;;;;29.63;15.75;;;30.30;96.40;;;;;;5007048;28;20033;-70
2022/01/30 12:39:22;;;;;;;30.70;16.98;;;30.30;96.30;;;;;;5005763;28;20025;-71
2022/01/30 12:41:51;;;;;;;27.88;15.45;;;30.20;97.00;;;;;;5011115;28;20026;-69
2022/01/30 12:44:20;;;;;;;27.70;15.75;;;30.20;96.70;;;;;;5006530;28;20033;-70
2022/01/30 12:46:53;;;;;;;28.73;15.75;;;30.10;97.10;;;;;;5006249;28;20043;-71
2022/01/30 12:49:28;;;;;;;33.08;17.35;;;30.10;97.30;;;;;;5003980;28;20014;-70
2022/01/30 12:51:58;;;;;;;28.50;16.92;;;29.90;97.30;;;;;;5005046;28;20455;-69
2022/01/30 12:54:29;;;;;;;30.00;15.57;;;29.90;97.80;;;;;;4999901;28;20109;-69
2022/01/30 12:56:56;;;;;;;31.15;16.35;;;29.90;97.90;;;;;;4998759;28;20030;-70
2022/01/30 12:59:24;;;;;;;23.98;14.50;;;29.80;98.20;;;;;;5000903;28;20033;-70
2022/01/30 13:01:51;;;;;;;32.78;15.00;;;29.70;98.50;;;;;;5005027;28;20025;-70
2022/01/30 13:04:20;;;;;;;26.45;13.73;;;29.70;98.60;;;;;;5000568;28;20091;-70
2022/01/30 13:06:49;;;;;;;23.80;15.10;;;29.70;99.10;;;;;;4998100;28;20042;-70
2022/01/30 13:09:22;;;;;;;25.63;14.52;;;29.70;99.20;;;;;;5006494;28;20113;-69
2022/01/30 13:11:50;;;;;;;27.65;16.00;;;29.70;99.10;;;;;;4999770;28;20022;-69
2022/01/30 13:14:17;;;;;;;27.50;15.48;;;29.70;99.40;;;;;;5007181;28;20025;-69
2022/01/30 13:16:46;;;;;;;29.60;15.32;;;29.80;99.20;;;;;;5013043;28;20124;-67
2022/01/30 13:19:27;;;;;;;31.13;15.98;;;29.70;99.50;;;;;;5012569;28;20050;-69
2022/01/30 13:21:54;;;;;;;26.05;15.07;;;29.60;99.90;;;;;;5011657;28;20033;-68
2022/01/30 13:24:20;;;;;;;27.98;16.08;;;29.60;99.90;;;;;;5007322;28;20027;-70
2022/01/30 13:26:55;;;;;;;24.27;13.73;;;29.70;99.90;;;;;;5007231;28;20018;-70